Agoura, California
Current Conditions -  °F | °C
As of 3:51 PM on Monday 24 Nov 2014 (Local Time) from KVNY Reporting Station
Clear Clear  
Wind Chill: 74°   Ceiling: Unl
Heat Index: 74°   Visibility: 10mi
Dew Point: 10°   Wind: 18mph
Humidity: 9%   Direction: 10°N
Pressure: 30.2"   Gusts: NA
Location:  34.1232°N, 118.77°W
Report Text: KVNY 242351Z 01016KT 10SM CLR 23/M12 A3020 RMK AO2 PK WND 01026/2320 SLP218 T02331122 10256 20217 56001
Loading
Personal Weather Stations






























Interactive Weather Map New forecast layout! Learn more

10-Day Weather Forecast

Advertisements
Track Severe Weather on mobile